Auckland International Airport
NZAA : now visible

Airfield :











YOU CAN JOIN US ON...

 
LOGIN :

Register | Disclaimer

   EN    FR    IT 

 









Legend :    VFR   Marginal VFR   IFR   Intensive IFR   Very Intensive IFR
Visi :
Ceiling :
>= 8 km
>= 3000ft
5 to 8 km
1000 to 3000 ft
1500m to 5 km
500 to 1000 ft
800 to 1500m
200 to 500 ft
< 800m
< 200 ft
Symbols :   Thunderstorms  Fog  Heavy snow  Heavy precipitations  Wind > 20 kt






- Airport Elevation : 23 ft
- IATA code : AKL


NZAA - Auckland International

CURRENT METAR :
  • 280100Z AUTO 04008KT 9999 NCD 18/09 Q1026 NOSIG

EXPIRED METARs :
  • 280030Z AUTO 06010KT 030V100 9999 NCD 18/09 Q1026 NOSIG
  • 280000Z AUTO 05009KT 9999 NCD 18/09 Q1026 NOSIG
  • 272330Z AUTO 06011KT 9999 NCD 17/10 Q1027 NOSIG
  • 272300Z AUTO 07007KT 9999 NCD 17/10 Q1027 NOSIG
  • 272230Z AUTO 13004KT 9999 NCD 14/10 Q1028 NOSIG

TAF TAF NZAA
Valid from the 28 at 00:00 until the 29 at 00:00 UTC


272321Z 2800/2900 05010KT 9999 FEW040
BECMG 2808/2810 11008KT
BECMG 2821/2823 06018G30KT
NZZC FIR / Oceania



MET'MAP, your aeronautical weather chart ! - Copyright ORBIFLY December 2007 - Disclaimer

ORBIFLY MET'MAP TEAM :

Programming & Development : Alexandra Zaïnal
Original concept : Baudouin d'Aumeries
Technical & hardware support : Manuel Goepfert
Assistance : Marc-Olivier Méhu

Contact : metmap@orbifly.com




SOURCES & CREDITS :

   NOAA       Earth
Advisory